Time;durP1;ratioP1;P1;durP2;ratioP2;P2;SDS_P1;SDS_P2;PMS_P1;PMS_P2;Temp;Humidity;BMP_temperature;BMP_pressure;BME280_temperature;BME280_humidity;BME280_pressure;Samples;Min_cycle;Max_cycle;Signal;HPM_P1;HPM_P2
2021/07/28 00:03:50;;;;;;;11.40;10.20;;;;;;;18.43;100.00;98747.84;10462228;28;20183;-81
2021/07/28 00:09:09;;;;;;;12.63;10.37;;;;;;;18.46;100.00;98743.38;10462098;28;20182;-80
2021/07/28 00:14:28;;;;;;;12.67;11.23;;;;;;;18.21;100.00;98743.63;10460738;28;20179;-81
2021/07/28 00:25:09;;;;;;;12.10;10.00;;;;;;;17.99;100.00;98753.22;10450791;28;20172;-80
2021/07/28 00:30:29;;;;;;;9.57;8.63;;;;;;;18.06;100.00;98761.28;10404191;28;20228;-81
2021/07/28 00:35:48;;;;;;;10.00;7.90;;;;;;;18.00;100.00;98758.31;10425973;28;20184;-80
2021/07/28 00:41:07;;;;;;;8.50;7.53;;;;;;;17.92;100.00;98772.97;10421461;28;20204;-79
2021/07/28 00:46:26;;;;;;;8.67;7.87;;;;;;;17.87;100.00;98767.97;10419384;28;20223;-80
2021/07/28 00:51:46;;;;;;;8.40;7.60;;;;;;;17.90;100.00;98769.88;10420423;28;20180;-82
2021/07/28 00:57:07;;;;;;;8.50;7.67;;;;;;;17.75;100.00;98779.97;10446723;28;20643;-80
2021/07/28 01:02:26;;;;;;;12.50;8.10;;;;;;;17.62;100.00;98782.03;10446793;28;20737;-80
2021/07/28 01:07:45;;;;;;;9.63;7.83;;;;;;;17.46;100.00;98773.88;10459774;28;20529;-80
2021/07/28 01:13:06;;;;;;;10.53;8.40;;;;;;;17.47;100.00;98772.66;10460219;28;20187;-81
2021/07/28 01:18:25;;;;;;;13.30;8.30;;;;;;;17.39;100.00;98785.25;10458415;28;20202;-82
2021/07/28 01:23:46;;;;;;;12.00;9.00;;;;;;;17.41;100.00;98784.81;10459630;28;20179;-81
2021/07/28 01:29:05;;;;;;;9.07;7.40;;;;;;;17.31;100.00;98770.06;10416820;28;20224;-80
2021/07/28 01:34:24;;;;;;;11.20;7.60;;;;;;;17.37;100.00;98779.38;10418463;28;20188;-79
2021/07/28 01:39:44;;;;;;;8.40;7.53;;;;;;;17.43;100.00;98772.03;10417282;28;20306;-80
2021/07/28 01:45:04;;;;;;;8.07;7.03;;;;;;;17.38;100.00;98772.59;10415847;28;20207;-80
2021/07/28 01:50:23;;;;;;;12.40;8.10;;;;;;;17.43;100.00;98769.25;10416941;28;20176;-80
2021/07/28 01:55:42;;;;;;;11.70;7.93;;;;;;;17.35;100.00;98767.94;10428981;28;20650;-77
2021/07/28 02:01:02;;;;;;;9.67;8.70;;;;;;;17.37;100.00;98754.34;10456229;28;20203;-77
2021/07/28 02:06:21;;;;;;;11.27;8.00;;;;;;;17.34;100.00;98766.38;10457453;28;20183;-80
2021/07/28 02:11:40;;;;;;;8.37;7.50;;;;;;;17.48;100.00;98771.44;10457468;28;20191;-78
2021/07/28 02:16:59;;;;;;;10.40;8.33;;;;;;;17.41;100.00;98771.69;10455889;28;20179;-80
2021/07/28 02:22:18;;;;;;;12.63;9.37;;;;;;;17.35;100.00;98779.06;10441500;28;20206;-78
2021/07/28 02:27:37;;;;;;;19.07;10.90;;;;;;;17.25;100.00;98780.19;10425564;28;20184;-79
2021/07/28 02:32:56;;;;;;;12.53;10.00;;;;;;;17.28;100.00;98770.19;10413453;28;20690;-79
2021/07/28 02:38:15;;;;;;;16.23;10.80;;;;;;;17.22;100.00;98778.28;10415207;28;20204;-80
2021/07/28 02:43:34;;;;;;;18.60;10.60;;;;;;;17.36;100.00;98782.63;10399772;28;20282;-81
2021/07/28 02:48:53;;;;;;;13.43;10.10;;;;;;;17.31;100.00;98780.44;10415108;28;20176;-79
2021/07/28 02:54:12;;;;;;;11.27;10.10;;;;;;;17.28;100.00;98775.75;10417488;28;20187;-80
2021/07/28 02:59:31;;;;;;;16.40;9.20;;;;;;;17.30;100.00;98776.09;10454510;28;20203;-77
2021/07/28 03:04:50;;;;;;;17.80;8.90;;;;;;;17.28;100.00;98773.75;10455814;28;20176;-78
2021/07/28 03:10:10;;;;;;;14.77;9.53;;;;;;;17.26;100.00;98773.41;10455765;28;20251;-79
2021/07/28 03:15:29;;;;;;;13.43;9.80;;;;;;;17.21;100.00;98779.50;10454328;28;20254;-80
2021/07/28 03:20:47;;;;;;;17.80;10.40;;;;;;;17.19;100.00;98781.19;10455075;28;20207;-81
2021/07/28 03:26:07;;;;;;;14.73;8.80;;;;;;;17.16;100.00;98771.75;10434587;28;20184;-81
2021/07/28 03:31:26;;;;;;;17.50;9.70;;;;;;;17.13;100.00;98775.44;10397534;28;20227;-81
2021/07/28 03:36:45;;;;;;;17.73;10.10;;;;;;;17.16;100.00;98774.53;10414047;28;20177;-82
2021/07/28 03:42:04;;;;;;;15.77;11.80;;;;;;;17.18;100.00;98780.44;10413372;28;20219;-82
2021/07/28 03:47:24;;;;;;;14.97;11.53;;;;;;;17.17;100.00;98773.31;10412962;28;20176;-82
2021/07/28 03:52:43;;;;;;;19.57;12.00;;;;;;;17.09;100.00;98769.25;10413722;28;20180;-81
2021/07/28 03:58:02;;;;;;;20.90;11.80;;;;;;;17.16;100.00;98787.69;10454523;28;20603;-80
2021/07/28 04:03:21;;;;;;;20.93;11.43;;;;;;;17.13;100.00;98783.78;10461019;28;20172;-80
2021/07/28 04:08:40;;;;;;;18.73;12.00;;;;;;;17.10;100.00;98778.34;10462278;28;20179;-80
2021/07/28 04:13:59;;;;;;;17.67;11.50;;;;;;;16.97;100.00;98780.38;10460666;28;20175;-81
2021/07/28 04:19:18;;;;;;;17.73;11.30;;;;;;;16.96;100.00;98782.38;10461543;28;20203;-81
2021/07/28 04:24:37;;;;;;;17.30;11.93;;;;;;;16.95;100.00;98783.63;10453569;28;20180;-78
2021/07/28 04:29:56;;;;;;;22.23;11.83;;;;;;;16.96;100.00;98787.16;10418737;28;20682;-80
2021/07/28 04:35:15;;;;;;;28.83;12.37;;;;;;;17.05;100.00;98799.13;10420081;28;20740;-80
2021/07/28 04:40:34;;;;;;;25.60;12.03;;;;;;;16.95;100.00;98789.19;10404514;28;20657;-78
2021/07/28 04:46:00;;;;;;;17.03;11.70;;;;;;;16.90;100.00;98789.72;10431748;28;20199;-79
2021/07/28 04:51:19;;;;;;;18.23;10.63;;;;;;;16.95;100.00;98799.50;10444749;28;20606;-77
2021/07/28 04:56:38;;;;;;;14.70;10.60;;;;;;;16.92;100.00;98792.84;10445276;28;20175;-78
2021/07/28 05:01:57;;;;;;;15.00;9.57;;;;;;;16.97;100.00;98791.50;10458470;28;20207;-79
2021/07/28 05:07:17;;;;;;;25.00;10.63;;;;;;;17.09;100.00;98788.69;10444070;28;20188;-78
2021/07/28 05:12:36;;;;;;;15.23;10.20;;;;;;;17.33;100.00;98777.94;10418741;28;20188;-79
2021/07/28 05:17:55;;;;;;;15.87;11.80;;;;;;;17.55;100.00;98799.00;10418152;28;20208;-79
2021/07/28 05:23:15;;;;;;;16.70;11.67;;;;;;;17.73;100.00;98790.78;10418241;28;20636;-78
2021/07/28 05:28:34;;;;;;;21.97;11.50;;;;;;;18.04;100.00;98792.38;10417638;28;20643;-79
2021/07/28 05:33:53;;;;;;;19.87;11.50;;;;;;;18.15;100.00;98791.97;10417729;28;20176;-78
2021/07/28 05:39:12;;;;;;;14.43;10.20;;;;;;;18.18;100.00;98791.81;10417105;28;20212;-78
2021/07/28 05:44:32;;;;;;;14.87;10.10;;;;;;;18.27;100.00;98800.25;10418065;28;20203;-81
2021/07/28 05:49:51;;;;;;;14.43;9.50;;;;;;;18.24;100.00;98795.59;10458119;28;20249;-82
2021/07/28 05:55:10;;;;;;;10.10;8.83;;;;;;;18.44;100.00;98804.34;10458021;28;20642;-79
2021/07/28 06:00:29;;;;;;;14.90;10.87;;;;;;;18.51;100.00;98793.69;10456104;28;20242;-79
2021/07/28 06:05:48;;;;;;;12.90;10.20;;;;;;;18.47;100.00;98797.84;10457747;28;20168;-79
2021/07/28 06:11:07;;;;;;;11.90;9.57;;;;;;;18.44;100.00;98796.00;10457391;28;20167;-81
2021/07/28 06:16:26;;;;;;;11.30;9.27;;;;;;;18.50;100.00;98814.41;10419847;28;20239;-81
2021/07/28 06:21:45;;;;;;;11.20;9.30;;;;;;;18.53;100.00;98813.53;10414578;28;20211;-81
2021/07/28 06:27:04;;;;;;;13.17;10.03;;;;;;;18.51;100.00;98815.97;10415638;28;20270;-81
2021/07/28 06:32:24;;;;;;;14.20;10.13;;;;;;;18.59;100.00;98820.03;10398719;28;20686;-80
2021/07/28 06:37:42;;;;;;;11.27;10.03;;;;;;;18.50;100.00;98828.34;10415269;28;20176;-81
2021/07/28 06:43:02;;;;;;;11.40;10.30;;;;;;;18.46;100.00;98822.16;10400253;28;20227;-80
2021/07/28 06:48:21;;;;;;;17.63;11.33;;;;;;;18.39;100.00;98830.00;10428967;28;20180;-81
2021/07/28 06:53:40;;;;;;;14.00;10.90;;;;;;;18.52;100.00;98831.47;10415028;28;20180;-82
2021/07/28 06:58:59;;;;;;;12.07;9.50;;;;;;;18.74;100.00;98837.72;10413320;28;20211;-78
2021/07/28 07:04:18;;;;;;;14.90;10.20;;;;;;;18.83;100.00;98837.75;10414930;28;20622;-79
2021/07/28 07:09:37;;;;;;;11.70;10.60;;;;;;;18.92;100.00;98845.41;10414598;28;20612;-78
2021/07/28 07:14:56;;;;;;;13.70;10.80;;;;;;;18.73;100.00;98854.91;10406431;28;20183;-81
2021/07/28 07:20:15;;;;;;;16.33;9.33;;;;;;;18.66;100.00;98855.22;10455144;28;20195;-82
2021/07/28 07:25:34;;;;;;;14.10;10.07;;;;;;;18.69;100.00;98849.50;10455320;28;20175;-82
2021/07/28 07:30:54;;;;;;;12.03;9.93;;;;;;;18.61;100.00;98856.59;10455521;28;20218;-81
2021/07/28 07:36:22;;;;;;;11.83;10.00;;;;;;;18.58;100.00;98842.78;10463420;28;20187;-82
2021/07/28 07:41:41;;;;;;;16.20;9.50;;;;;;;18.70;100.00;98828.75;10462715;28;20203;-82
2021/07/28 07:47:00;;;;;;;12.77;10.27;;;;;;;18.72;100.00;98837.44;10421108;28;20706;-81
2021/07/28 07:52:19;;;;;;;12.60;9.80;;;;;;;18.97;100.00;98848.34;10421727;28;20566;-82
2021/07/28 07:57:38;;;;;;;11.87;9.63;;;;;;;18.81;100.00;98845.84;10421397;28;20188;-80
2021/07/28 08:02:57;;;;;;;11.23;10.03;;;;;;;18.96;100.00;98846.81;10405162;28;20184;-82
2021/07/28 08:08:17;;;;;;;12.03;9.80;;;;;;;19.18;99.56;98853.06;10421095;28;20896;-81
2021/07/28 08:13:36;;;;;;;12.20;10.30;;;;;;;19.19;100.00;98846.25;10420759;28;20276;-80
2021/07/28 08:18:56;;;;;;;12.07;9.80;;;;;;;19.34;99.59;98844.41;10420842;28;20211;-80
2021/07/28 08:24:16;;;;;;;11.23;10.07;;;;;;;19.25;100.00;98838.81;10420419;28;20259;-80
2021/07/28 08:29:35;;;;;;;11.53;9.90;;;;;;;19.28;97.02;98847.03;10418740;28;20228;-79
2021/07/28 08:34:53;;;;;;;9.90;8.67;;;;;;;19.42;98.34;98837.31;10404905;28;20188;-79
2021/07/28 08:40:15;;;;;;;12.17;9.77;;;;;;;19.74;95.81;98828.31;10419419;28;20211;-80
2021/07/28 08:45:34;;;;;;;10.27;9.13;;;;;;;19.73;95.79;98829.53;10432557;28;20195;-80
2021/07/28 08:50:53;;;;;;;14.80;9.40;;;;;;;19.23;96.69;98835.72;10460851;28;20175;-78
2021/07/28 08:56:13;;;;;;;10.77;9.67;;;;;;;19.56;95.81;98831.09;10460587;28;20172;-79
2021/07/28 09:01:32;;;;;;;13.23;10.60;;;;;;;19.73;96.64;98833.13;10443298;28;20669;-78
2021/07/28 09:06:51;;;;;;;12.40;9.53;;;;;;;19.95;92.94;98836.53;10460143;28;20715;-79
2021/07/28 09:12:09;;;;;;;10.70;9.60;;;;;;;20.15;92.77;98854.34;10459763;28;20179;-78
2021/07/28 09:17:30;;;;;;;15.80;9.60;;;;;;;20.22;91.47;98865.19;10427272;28;20192;-79
2021/07/28 09:22:49;;;;;;;13.43;8.70;;;;;;;19.93;91.26;98869.69;10389451;28;20176;-78
2021/07/28 09:28:19;;;;;;;13.50;8.57;;;;;;;20.20;90.69;98862.09;10403037;28;20188;-78
2021/07/28 09:34:08;;;;;;;11.40;8.77;;;;;;;20.56;88.19;98869.59;10416592;28;20263;-77
2021/07/28 09:39:35;;;;;;;9.97;8.83;;;;;;;20.61;87.52;98864.16;10402180;28;20208;-77
2021/07/28 09:44:56;;;;;;;16.70;9.00;;;;;;;20.81;86.72;98855.25;10409996;28;20641;-78
2021/07/28 09:50:16;;;;;;;9.47;8.50;;;;;;;20.35;87.46;98862.22;10443227;28;20250;-77
2021/07/28 09:55:45;;;;;;;9.60;8.70;;;;;;;20.88;84.61;98858.47;10442883;28;20176;-76
2021/07/28 10:01:04;;;;;;;14.73;7.93;;;;;;;20.71;83.53;98850.94;10456200;28;20203;-76
2021/07/28 10:06:29;;;;;;;8.70;8.00;;;;;;;20.23;85.45;98858.38;10457738;28;20179;-77
2021/07/28 10:11:52;;;;;;;11.90;7.90;;;;;;;20.26;86.59;98857.44;10442492;28;20179;-77
2021/07/28 10:17:12;;;;;;;10.30;7.50;;;;;;;20.43;86.12;98839.09;10428022;28;20188;-77
2021/07/28 10:22:32;;;;;;;7.80;7.10;;;;;;;20.85;81.88;98851.03;10421504;28;20298;-78
2021/07/28 10:27:52;;;;;;;9.90;8.53;;;;;;;22.07;76.66;98845.50;10400762;28;20559;-79
2021/07/28 10:33:27;;;;;;;8.40;7.60;;;;;;;22.94;73.13;98851.88;10399601;28;20307;-77
2021/07/28 10:38:53;;;;;;;9.03;7.80;;;;;;;22.29;73.41;98856.34;10400245;28;20215;-77
2021/07/28 10:44:22;;;;;;;9.00;8.10;;;;;;;21.39;77.41;98845.13;10413990;28;20184;-78
2021/07/28 10:49:44;;;;;;;9.40;8.40;;;;;;;22.04;74.65;98852.09;10399685;28;20184;-78
2021/07/28 10:55:04;;;;;;;9.70;8.30;;;;;;;22.10;73.40;98860.56;10415010;28;20525;-78
2021/07/28 11:00:43;;;;;;;8.60;7.90;;;;;;;21.87;75.64;98853.00;10413224;28;20203;-76
2021/07/28 11:06:19;;;;;;;8.00;7.30;;;;;;;21.65;75.57;98863.03;10427838;28;20191;-78
2021/07/28 11:11:46;;;;;;;9.23;8.13;;;;;;;21.34;77.75;98856.97;10454597;28;20630;-77
2021/07/28 11:17:05;;;;;;;7.43;6.83;;;;;;;21.40;75.64;98853.03;10468255;28;20175;-78
2021/07/28 11:22:25;;;;;;;8.13;7.30;;;;;;;21.41;76.08;98854.59;10468747;28;20206;-78
2021/07/28 11:28:03;;;;;;;8.33;6.50;;;;;;;21.53;75.98;98864.00;10453979;28;20175;-78
2021/07/28 11:33:22;;;;;;;8.13;6.67;;;;;;;21.28;76.24;98847.69;10382358;28;20189;-78
2021/07/28 11:38:41;;;;;;;8.27;7.47;;;;;;;21.54;77.54;98840.34;10345945;28;20667;-77
2021/07/28 11:44:01;;;;;;;8.80;6.83;;;;;;;21.71;77.14;98845.84;10344901;28;21087;-77
2021/07/28 11:49:24;;;;;;;6.87;5.90;;;;;;;21.61;73.32;98828.81;10344977;28;20177;-77
2021/07/28 11:54:43;;;;;;;7.23;6.63;;;;;;;22.23;74.64;98831.03;10345839;28;20546;-77
2021/07/28 12:00:34;;;;;;;6.63;6.07;;;;;;;23.24;69.35;98830.88;10343389;28;20209;-77
2021/07/28 12:05:57;;;;;;;6.97;6.27;;;;;;;23.08;67.89;98827.88;10370766;28;20651;-78
2021/07/28 12:11:16;;;;;;;7.80;7.03;;;;;;;24.04;67.82;98826.00;10386187;28;20211;-77
2021/07/28 12:16:41;;;;;;;7.07;6.47;;;;;;;24.22;63.57;98831.31;10382935;28;20219;-78
2021/07/28 12:22:09;;;;;;;6.53;5.93;;;;;;;24.65;63.09;98821.72;10378013;28;20686;-78
2021/07/28 12:27:28;;;;;;;8.30;5.77;;;;;;;24.48;59.73;98813.16;10379581;28;20177;-78
2021/07/28 12:33:05;;;;;;;7.97;5.90;;;;;;;25.71;58.27;98803.66;10413275;28;20215;-77
2021/07/28 12:38:31;;;;;;;5.93;5.43;;;;;;;25.72;55.38;98810.09;10377796;28;20255;-76
2021/07/28 12:43:51;;;;;;;6.13;5.57;;;;;;;25.12;57.68;98802.88;10377712;28;20185;-76
2021/07/28 12:49:10;;;;;;;5.80;5.30;;;;;;;24.54;59.42;98813.22;10378668;28;20263;-76
2021/07/28 12:54:29;;;;;;;6.07;5.67;;;;;;;24.89;59.86;98808.09;10377179;28;20208;-75
2021/07/28 12:59:48;;;;;;;6.17;5.33;;;;;;;24.83;59.78;98793.22;10412957;28;20211;-75
2021/07/28 13:05:15;;;;;;;6.50;5.90;;;;;;;24.97;59.39;98795.88;10418046;28;20176;-75
2021/07/28 13:10:35;;;;;;;6.40;5.90;;;;;;;26.20;55.97;98783.28;10418810;28;20184;-76
2021/07/28 13:15:59;;;;;;;6.00;5.50;;;;;;;24.35;60.35;98809.94;10417234;28;20255;-79
2021/07/28 13:21:18;;;;;;;5.50;5.00;;;;;;;24.37;58.67;98793.34;10416902;28;20208;-78
2021/07/28 13:26:37;;;;;;;6.13;5.63;;;;;;;24.50;58.31;98787.34;10406034;28;20263;-79
2021/07/28 13:31:56;;;;;;;12.57;5.40;;;;;;;24.98;55.58;98775.66;10445566;28;20703;-76
2021/07/28 13:37:15;;;;;;;6.23;5.63;;;;;;;25.27;57.69;98780.97;10443555;28;20175;-79
2021/07/28 13:42:34;;;;;;;5.83;5.27;;;;;;;25.56;55.71;98771.34;10442788;28;20298;-76
2021/07/28 13:47:54;;;;;;;6.33;5.57;;;;;;;25.35;55.00;98759.50;10456927;28;20179;-75
2021/07/28 13:53:12;;;;;;;5.17;4.77;;;;;;;25.36;54.50;98744.13;10458268;28;20255;-75
2021/07/28 13:58:31;;;;;;;5.27;4.87;;;;;;;24.59;56.65;98761.84;10416587;28;20207;-74
2021/07/28 14:03:50;;;;;;;5.53;4.90;;;;;;;25.81;55.72;98754.28;10416519;28;20179;-74
2021/07/28 14:09:09;;;;;;;5.67;5.27;;;;;;;26.04;54.02;98748.19;10416371;28;20180;-74
2021/07/28 14:14:31;;;;;;;4.80;4.50;;;;;;;26.67;51.38;98733.03;10399801;28;20216;-74
2021/07/28 14:19:50;;;;;;;5.63;5.23;;;;;;;26.86;51.63;98727.59;10400617;28;20243;-74
2021/07/28 14:25:09;;;;;;;5.13;4.63;;;;;;;25.72;53.60;98728.38;10415711;28;20172;-73
2021/07/28 14:30:28;;;;;;;4.90;4.50;;;;;;;24.50;56.14;98723.44;10440059;28;20211;-77
2021/07/28 14:35:47;;;;;;;11.63;5.90;;;;;;;24.62;56.29;98741.91;10456501;28;20273;-77
2021/07/28 14:41:06;;;;;;;5.00;4.63;;;;;;;24.81;57.09;98736.66;10455151;28;20219;-78
2021/07/28 14:46:25;;;;;;;7.67;6.10;;;;;;;24.18;58.71;98741.56;10439912;28;20179;-78
2021/07/28 14:51:45;;;;;;;6.30;5.77;;;;;;;23.96;58.65;98737.00;10456466;28;20213;-77
2021/07/28 14:57:04;;;;;;;8.20;5.30;;;;;;;23.98;59.90;98742.91;10440065;28;20676;-78
2021/07/28 15:02:23;;;;;;;7.33;5.10;;;;;;;24.16;57.90;98748.94;10397852;28;20196;-77
2021/07/28 15:07:42;;;;;;;8.23;4.73;;;;;;;25.54;56.45;98732.41;10414521;28;20203;-78
2021/07/28 15:13:00;;;;;;;5.97;4.80;;;;;;;25.86;53.12;98726.09;10399438;28;20180;-78
2021/07/28 15:18:20;;;;;;;5.70;5.20;;;;;;;25.89;52.66;98713.78;10413354;28;20200;-77
2021/07/28 15:23:39;;;;;;;6.00;5.37;;;;;;;25.00;54.98;98728.06;10414421;28;20180;-80
2021/07/28 15:28:58;;;;;;;5.53;5.03;;;;;;;24.30;56.44;98725.56;10437238;28;20772;-79
2021/07/28 15:34:19;;;;;;;5.20;4.80;;;;;;;24.25;56.12;98715.81;10414299;28;20262;-79
2021/07/28 15:40:04;;;;;;;5.40;4.97;;;;;;;24.19;56.40;98717.78;10413996;28;20274;-79
2021/07/28 15:45:25;;;;;;;6.97;5.67;;;;;;;23.87;56.20;98712.69;10398015;28;20176;-80
2021/07/28 15:50:44;;;;;;;4.87;4.47;;;;;;;23.79;58.56;98724.84;10413963;28;20168;-79
2021/07/28 15:56:03;;;;;;;8.57;5.30;;;;;;;23.76;58.26;98726.59;10431322;28;20183;-78
2021/07/28 16:01:22;;;;;;;6.17;5.60;;;;;;;23.52;59.42;98722.50;10445781;28;20219;-80
2021/07/28 16:06:41;;;;;;;6.57;5.20;;;;;;;23.18;64.57;98742.28;10447315;28;20175;-80
2021/07/28 16:12:00;;;;;;;4.90;4.50;;;;;;;22.30;69.16;98745.78;10447089;28;20175;-79
2021/07/28 16:17:31;;;;;;;9.00;6.17;;;;;;;21.76;77.47;98754.81;10441180;28;20211;-80
2021/07/28 16:22:56;;;;;;;9.00;6.10;;;;;;;21.39;82.14;98772.38;10453019;28;20665;-80
2021/07/28 16:28:16;;;;;;;7.20;6.60;;;;;;;20.60;96.09;98786.38;10420076;28;20180;-80
2021/07/28 16:33:35;;;;;;;11.00;7.47;;;;;;;20.36;100.00;98789.09;10337152;28;20185;-78
2021/07/28 16:38:54;;;;;;;9.00;7.43;;;;;;;20.07;100.00;98785.34;10372741;28;20216;-80
2021/07/28 16:44:16;;;;;;;8.00;7.17;;;;;;;19.92;100.00;98778.81;10377217;28;20173;-80
2021/07/28 16:49:35;;;;;;;9.43;7.47;;;;;;;20.01;100.00;98797.59;10377457;28;20202;-80
2021/07/28 16:54:54;;;;;;;7.50;6.80;;;;;;;20.03;100.00;98783.94;10378269;28;20184;-81
2021/07/28 17:00:14;;;;;;;7.90;6.87;;;;;;;20.34;100.00;98788.81;10376589;28;20212;-81
2021/07/28 17:05:34;;;;;;;12.10;6.70;;;;;;;20.64;100.00;98789.75;10376901;28;20177;-79
2021/07/28 17:10:53;;;;;;;7.00;6.30;;;;;;;21.34;95.21;98787.00;10377308;28;20177;-79
2021/07/28 17:16:13;;;;;;;6.60;6.07;;;;;;;21.29;90.40;98785.63;10376457;28;20635;-80
2021/07/28 17:21:33;;;;;;;6.60;6.07;;;;;;;21.49;89.00;98782.22;10377057;28;20212;-80
2021/07/28 17:26:52;;;;;;;8.40;6.17;;;;;;;22.90;81.56;98771.97;10377206;28;20619;-79
2021/07/28 17:32:11;;;;;;;6.00;5.60;;;;;;;22.30;81.36;98780.22;10439332;28;20211;-79
2021/07/28 17:37:42;;;;;;;4.97;4.53;;;;;;;23.33;73.23;98777.41;10458903;28;20191;-78
2021/07/28 17:43:01;;;;;;;5.37;4.97;;;;;;;23.71;69.34;98780.69;10457291;28;20590;-80
2021/07/28 17:48:21;;;;;;;4.90;4.50;;;;;;;23.72;69.20;98768.19;10457201;28;20574;-77
2021/07/28 17:53:44;;;;;;;5.27;4.87;;;;;;;21.89;78.28;98774.88;10458249;28;20254;-78
2021/07/28 17:59:03;;;;;;;5.90;5.40;;;;;;;21.23;82.00;98778.41;10456773;28;20211;-78
2021/07/28 18:04:23;;;;;;;6.20;5.60;;;;;;;20.91;84.37;98780.00;10457893;28;20171;-79
2021/07/28 18:09:43;;;;;;;4.90;4.50;;;;;;;20.74;86.41;98786.47;10440997;28;20183;-79
2021/07/28 18:15:02;;;;;;;5.20;4.80;;;;;;;20.54;87.92;98779.88;10456058;28;20175;-79
2021/07/28 18:20:22;;;;;;;6.23;5.63;;;;;;;20.49;88.08;98764.53;10439352;28;20211;-80
2021/07/28 18:25:42;;;;;;;5.90;5.27;;;;;;;20.37;88.76;98754.31;10400998;28;20180;-78
2021/07/28 18:31:02;;;;;;;5.60;5.20;;;;;;;20.29;90.87;98760.72;10413946;28;20220;-80
2021/07/28 18:36:21;;;;;;;5.73;4.77;;;;;;;20.19;91.89;98764.81;10422846;28;20203;-79
2021/07/28 18:41:40;;;;;;;5.43;5.03;;;;;;;20.18;91.25;98766.84;10455919;28;20689;-80
2021/07/28 18:46:59;;;;;;;5.00;4.60;;;;;;;20.14;91.50;98760.63;10455165;28;20176;-79
2021/07/28 18:52:19;;;;;;;5.20;4.80;;;;;;;20.16;91.40;98769.31;10456281;28;20525;-79
2021/07/28 18:57:38;;;;;;;5.60;4.87;;;;;;;20.20;91.73;98783.13;10456412;28;20203;-80
2021/07/28 19:02:57;;;;;;;5.47;5.07;;;;;;;20.19;91.35;98787.91;10453995;28;20211;-80
2021/07/28 19:08:15;;;;;;;5.40;4.90;;;;;;;20.23;92.70;98794.13;10434014;28;20215;-79
2021/07/28 19:13:35;;;;;;;4.90;4.50;;;;;;;20.22;91.83;98802.97;10414651;28;20561;-80
2021/07/28 19:18:54;;;;;;;5.63;5.03;;;;;;;20.22;93.05;98809.31;10414409;28;20203;-79
2021/07/28 19:24:13;;;;;;;6.23;5.67;;;;;;;20.10;94.65;98810.31;10415613;28;20553;-81
2021/07/28 19:29:32;;;;;;;6.87;4.97;;;;;;;19.99;94.58;98823.19;10390210;28;20220;-81
2021/07/28 19:34:51;;;;;;;5.67;5.17;;;;;;;19.87;96.77;98837.31;10422627;28;20172;-79
2021/07/28 19:40:10;;;;;;;7.40;5.10;;;;;;;19.74;97.62;98839.47;10421911;28;20215;-80
2021/07/28 19:45:30;;;;;;;5.30;4.70;;;;;;;19.76;97.89;98839.78;10420909;28;20176;-79
2021/07/28 19:50:49;;;;;;;5.23;4.73;;;;;;;19.66;99.76;98852.19;10415371;28;20547;-80
2021/07/28 19:56:08;;;;;;;4.73;4.17;;;;;;;19.53;99.07;98857.16;10462394;28;20638;-79
2021/07/28 20:01:27;;;;;;;6.27;4.67;;;;;;;19.40;99.02;98859.31;10445920;28;20207;-79
2021/07/28 20:06:46;;;;;;;4.13;3.83;;;;;;;19.34;97.86;98855.56;10447462;28;20531;-80
2021/07/28 20:12:07;;;;;;;5.60;4.60;;;;;;;19.40;97.31;98850.94;10447216;28;20172;-80
2021/07/28 20:17:26;;;;;;;3.70;3.50;;;;;;;19.38;97.19;98861.81;10460813;28;20258;-79
2021/07/28 20:22:45;;;;;;;4.63;4.23;;;;;;;19.43;96.81;98861.19;10444647;28;20222;-80
2021/07/28 20:28:04;;;;;;;4.63;4.23;;;;;;;19.40;95.63;98865.69;10446636;28;20807;-80
2021/07/28 20:33:23;;;;;;;6.30;3.80;;;;;;;19.39;96.26;98877.28;10445252;28;20266;-79
2021/07/28 20:38:42;;;;;;;4.47;4.17;;;;;;;19.36;96.01;98872.63;10444625;28;20196;-80
2021/07/28 20:44:01;;;;;;;3.73;3.53;;;;;;;19.26;96.56;98865.47;10444689;28;20175;-80
2021/07/28 20:49:20;;;;;;;3.90;3.70;;;;;;;19.34;95.95;98869.53;10460838;28;20215;-79
2021/07/28 20:54:39;;;;;;;3.60;3.30;;;;;;;19.21;96.05;98868.09;10404547;28;20191;-79
2021/07/28 20:59:58;;;;;;;3.40;3.17;;;;;;;19.29;94.69;98870.16;10402538;28;20584;-81
2021/07/28 21:05:17;;;;;;;6.10;3.33;;;;;;;19.25;94.67;98858.34;10404072;28;20176;-79
2021/07/28 21:10:36;;;;;;;3.10;2.90;;;;;;;19.25;93.72;98853.56;10418913;28;20180;-79
2021/07/28 21:15:55;;;;;;;3.20;3.00;;;;;;;19.29;93.46;98859.00;10417252;28;20540;-79
2021/07/28 21:21:14;;;;;;;3.57;3.30;;;;;;;19.27;94.42;98862.22;10418206;28;20211;-80
2021/07/28 21:26:33;;;;;;;3.37;3.10;;;;;;;19.18;95.77;98869.03;10418204;28;20168;-79
2021/07/28 21:31:53;;;;;;;3.50;3.20;;;;;;;19.07;97.58;98872.22;10416349;28;20224;-80
2021/07/28 21:37:13;;;;;;;3.50;3.20;;;;;;;18.88;98.97;98862.25;10417705;28;20208;-79
2021/07/28 21:42:33;;;;;;;3.87;3.47;;;;;;;18.80;100.00;98858.22;10449670;28;20211;-80
2021/07/28 21:47:55;;;;;;;3.17;2.97;;;;;;;18.69;100.00;98865.44;10441728;28;20180;-79
2021/07/28 21:53:22;;;;;;;4.07;3.53;;;;;;;18.56;100.00;98868.34;10458144;28;20167;-79
2021/07/28 21:58:44;;;;;;;3.43;3.10;;;;;;;18.43;100.00;98869.66;10458134;28;20277;-79
2021/07/28 22:04:03;;;;;;;4.73;3.53;;;;;;;18.36;100.00;98858.00;10442802;28;20167;-79
2021/07/28 22:09:23;;;;;;;3.80;3.50;;;;;;;18.38;100.00;98870.22;10435640;28;20218;-79
2021/07/28 22:14:42;;;;;;;4.23;3.87;;;;;;;18.27;100.00;98874.66;10400182;28;20180;-81
2021/07/28 22:20:02;;;;;;;4.40;4.00;;;;;;;18.19;100.00;98876.13;10400937;28;20306;-80
2021/07/28 22:25:24;;;;;;;4.03;3.47;;;;;;;18.11;100.00;98870.06;10416025;28;20204;-80
2021/07/28 22:30:43;;;;;;;4.73;3.70;;;;;;;18.03;100.00;98865.19;10414263;28;20682;-80
2021/07/28 22:36:03;;;;;;;3.93;3.53;;;;;;;17.94;100.00;98865.91;10400646;28;20191;-80
2021/07/28 22:41:24;;;;;;;6.97;4.10;;;;;;;17.72;100.00;98870.72;10422477;28;20309;-79
2021/07/28 22:46:59;;;;;;;4.33;3.93;;;;;;;17.64;100.00;98868.59;10440135;28;20187;-81
2021/07/28 22:57:58;;;;;;;3.80;3.50;;;;;;;17.58;100.00;98859.28;10455729;28;20179;-79
2021/07/28 23:08:55;;;;;;;3.73;3.43;;;;;;;17.45;100.00;98852.97;10450574;28;20574;-79
2021/07/28 23:14:15;;;;;;;4.23;3.77;;;;;;;17.38;100.00;98856.00;10413433;28;20513;-78
2021/07/28 23:19:34;;;;;;;4.03;3.73;;;;;;;17.25;100.00;98860.81;10414293;28;20208;-78
2021/07/28 23:24:53;;;;;;;4.57;4.17;;;;;;;17.32;100.00;98857.06;10414705;28;20176;-78
2021/07/28 23:30:12;;;;;;;7.70;4.00;;;;;;;17.18;100.00;98855.50;10412993;28;20216;-79
2021/07/28 23:35:31;;;;;;;4.57;4.27;;;;;;;17.13;100.00;98853.25;10414298;28;20200;-79
2021/07/28 23:40:54;;;;;;;3.90;3.70;;;;;;;17.09;100.00;98849.03;10429198;28;20223;-79
2021/07/28 23:46:14;;;;;;;3.90;3.60;;;;;;;17.01;100.00;98853.28;10398573;28;20184;-79
2021/07/28 23:51:33;;;;;;;4.47;4.17;;;;;;;16.90;100.00;98852.88;10398972;28;20192;-79
2021/07/28 23:56:52;;;;;;;9.97;4.57;;;;;;;16.97;100.00;98853.41;10413739;28;20176;-78
